KMWH/MWH METAR and TAF weather

Enter ICAO airport designator
Station Type Date Time Source
KMWH METAR 2023/02/05 13:52 UTC NOAA

KMWH 051352Z 00000KT 10SM -RA BKN041 BKN048 OVC080 02/01 A2971 RMK AO2 UPB47E50RAB50 SLP069 P0000 T00170006 $


Station Type Date Time Source
KMWH Decoded METAR 2023/02/05 13:52 UTC NOAA

GRANT COUNTY AIRPORT, WA, United States (KMWH) 47-12N 119-19W 362M
Feb 05, 2023 - 08:52 AM EST / 2023.02.05 1352 UTC
Wind: Calm:0
Visibility: 10 mile(s):0
Sky conditions: overcast
Weather: light rain
Precipitation last hour: A trace
Temperature: 35.1 F (1.7 C)
Dew Point: 33.1 F (0.6 C)
Relative Humidity: 92%
Pressure (altimeter): 29.71 in. Hg (1006 hPa)
ob: KMWH 051352Z 00000KT 10SM -RA BKN041 BKN048 OVC080 02/01 A2971 RMK AO2 UPB47E50RAB50 SLP069 P0000 T00170006
cycle: 14

Station Type Date Time Source
KMWH TAF 2023/02/05 12:40 UTC NOAA

TAF KMWH 051137Z 0512/0612 01004KT P6SM VCSH OVC080
FM051400 VRB03KT 5SM -RA OVC030
FM051900 24004KT P6SM SCT015 BKN060
FM060400 27006KT P6SM SCT060

Example: see airport list